KFMH/FMH METAR and TAF weather

Enter ICAO airport designator
Station Type Date Time Source
KFMH METAR 2018/12/19 00:49 UTC NOAA

KFMH 190049Z 31010KT 10SM CLR M03/M12 A3002


Station Type Date Time Source
KFMH Decoded METAR 2018/12/19 00:49 UTC NOAA

Otis Air National Guard Base, MA, United States (KFMH) 41-39N 070-31W
Dec 18, 2018 - 07:49 PM EST / 2018.12.19 0049 UTC
Wind: from the NW (310 degrees) at 12 MPH (10 KT):0
Visibility: 10 mile(s):0
Sky conditions: clear
Temperature: 26 F (-3 C)
Windchill: 15 F (-9 C):1
Dew Point: 10 F (-12 C)
Relative Humidity: 49%
Pressure (altimeter): 30.02 in. Hg (1016 hPa)
ob: KFMH 190049Z 31010KT 10SM CLR M03/M12 A3002
cycle: 1

Station Type Date Time Source
KFMH TAF 2018/12/19 06:30 UTC NOAA

TAF KFMH 190528Z 1906/2006 31009KT P6SM SKC
FM190900 29007KT P6SM SKC
FM191600 27008KT P6SM FEW250
FM200000 25006KT P6SM FEW130


Example: see airport list